map of BZE home
BZE - Airport
Location
City:  Belize City, Belize, Belize
Name:Philip S.W. Goldson International Airport
ICAO:MZBZ
IATA:BZE

Details
Type:Airport (Aerodrome, Airfield)
Use:Public/Civil, International (customs port of entry)
Latitude:1732'21"N (17.539144)
Longitude:8818'30"W (-88.308202)
Datum:WGS 1984
Elevation:15 ft (5 m)
Variation:0.56W (WMM2015 magnetic declination)
-0.14 annual change
Runways:1
Longest:7100 × 150 ft (2164 × 45.5 m), paved

Time
Time Zone:UTC-6
Local Time:

Weather
METAR:MZBZ 162021Z 14003KT 7000 BKN016 SCT035 27/24 A2997 Q1014 RESHRA NOSIG

Related Locations
Nearby:
Farthest:CCK: 11935 mi / 19208 km
West Island (Pulau Panjang) [Cocos (Keeling) Islands], CC

Find:

   beyond  
but within

Other Information
Maps:
NOTAMs:
Links:
Sources:

  
flag of Belize   

Airport Diagram

Airport diagram for BZE

Larger airport diagram (OBSOLETE) from NGA

Sectional Chart

Flight Planning
at skyvector.com

Satellite Image

Google Maps Satellite view

 

Copyright © 2004-2017 Karl L. Swartz. All rights reserved.
The Great Circle Mapper name and logo are trademarks of the Great Circle Mapper.
All other trademarks mentioned herein belong to their respective owners.
Please see credits for attibutions and further copyright information.

  Follow gcmap on Facebook Follow gcmap on Twitter Follow gcmap on Google+ GCmap on LinkedIn

hCard Microformat

Geo Microformat